createdAt,value
2023-02-17T00:01:23.894Z,93.09
2023-02-17T00:03:51.479Z,93.15
2023-02-17T00:06:19.707Z,93.41
2023-02-17T00:08:46.691Z,93.13
2023-02-17T00:11:14.310Z,93.50
2023-02-17T00:13:41.402Z,93.47
2023-02-17T00:16:09.995Z,94.04
2023-02-17T00:18:37.005Z,94.35
2023-02-17T00:21:07.228Z,94.54
2023-02-17T00:23:34.084Z,94.54
2023-02-17T00:26:00.934Z,94.48
2023-02-17T00:28:28.072Z,94.52
2023-02-17T00:30:55.032Z,94.40
2023-02-17T00:33:22.083Z,94.72
2023-02-17T00:35:48.959Z,95.11
2023-02-17T00:38:15.832Z,95.13
2023-02-17T00:40:42.874Z,95.08
2023-02-17T00:43:09.795Z,95.17
2023-02-17T00:45:36.809Z,95.28
2023-02-17T00:48:03.756Z,95.36
2023-02-17T00:50:30.597Z,95.42
2023-02-17T00:52:57.440Z,95.37
2023-02-17T00:55:24.286Z,95.97
2023-02-17T00:57:51.229Z,96.04
2023-02-17T01:00:18.347Z,95.92
2023-02-17T01:02:45.176Z,96.10
2023-02-17T01:05:12.036Z,96.16
2023-02-17T01:07:39.048Z,95.76
2023-02-17T01:10:06.448Z,95.84
2023-02-17T01:12:33.317Z,96.04
2023-02-17T01:15:00.374Z,95.97
2023-02-17T01:17:27.580Z,96.68
2023-02-17T01:19:54.411Z,96.57
2023-02-17T01:22:21.397Z,96.19
2023-02-17T01:24:48.301Z,96.21
2023-02-17T01:27:15.442Z,96.03
2023-02-17T01:29:43.590Z,96.11
2023-02-17T01:32:10.454Z,96.62
2023-02-17T01:34:37.904Z,96.55
2023-02-17T01:37:04.777Z,96.07
2023-02-17T01:39:31.654Z,96.38
2023-02-17T01:41:58.510Z,96.47
2023-02-17T01:44:26.256Z,96.26
2023-02-17T01:46:54.193Z,96.65
2023-02-17T01:49:25.895Z,96.65
2023-02-17T01:51:54.956Z,96.50
2023-02-17T01:54:27.068Z,96.51
2023-02-17T01:56:55.487Z,96.56
2023-02-17T01:59:22.744Z,96.43
2023-02-17T02:01:50.844Z,96.64
2023-02-17T02:04:19.369Z,97.03
2023-02-17T02:06:46.384Z,96.76
2023-02-17T02:09:17.079Z,96.63
2023-02-17T02:11:43.968Z,96.91
2023-02-17T02:14:11.684Z,96.95
2023-02-17T02:16:41.545Z,96.85
2023-02-17T02:19:11.444Z,96.94
2023-02-17T02:21:41.647Z,97.30
2023-02-17T02:24:11.686Z,97.14
2023-02-17T02:26:41.567Z,96.90
2023-02-17T02:29:11.486Z,97.08
2023-02-17T02:31:39.760Z,96.80
2023-02-17T02:34:09.285Z,96.74
2023-02-17T02:36:38.674Z,96.86
2023-02-17T02:39:11.099Z,96.87
2023-02-17T02:41:41.344Z,96.52
2023-02-17T02:44:09.777Z,96.56
2023-02-17T02:46:36.688Z,96.98
2023-02-17T02:49:05.089Z,97.01
2023-02-17T02:51:33.258Z,96.77
2023-02-17T02:54:03.440Z,96.56
2023-02-17T02:56:36.987Z,96.47
2023-02-17T02:59:06.942Z,96.56
2023-02-17T03:01:40.545Z,96.22
2023-02-17T03:04:10.421Z,96.42
2023-02-17T03:06:41.509Z,96.42
2023-02-17T03:09:11.247Z,96.72
2023-02-17T03:11:38.284Z,96.97
2023-02-17T03:14:07.812Z,96.61
2023-02-17T03:16:35.505Z,96.78
2023-02-17T03:19:02.414Z,96.63
2023-02-17T03:21:42.070Z,96.94
2023-02-17T03:24:09.493Z,97.17
2023-02-17T03:26:36.528Z,96.98
2023-02-17T03:29:03.422Z,96.65
2023-02-17T03:31:31.032Z,96.37
2023-02-17T03:33:58.567Z,96.20
2023-02-17T03:36:25.447Z,96.52
2023-02-17T03:38:52.327Z,96.37
2023-02-17T03:41:19.191Z,96.03
2023-02-17T03:43:45.994Z,96.04
2023-02-17T03:46:13.553Z,95.93
2023-02-17T03:48:40.530Z,95.70
2023-02-17T03:51:10.485Z,95.91
2023-02-17T03:53:37.347Z,96.07
2023-02-17T03:56:04.732Z,96.06
2023-02-17T03:58:31.922Z,95.78
2023-02-17T04:00:58.823Z,95.88
2023-02-17T04:03:25.872Z,95.93
2023-02-17T04:05:52.726Z,95.74
2023-02-17T04:08:19.543Z,95.54
2023-02-17T04:10:46.545Z,95.28
2023-02-17T04:13:13.447Z,95.76
2023-02-17T04:15:40.266Z,95.14
2023-02-17T04:18:07.113Z,94.98
2023-02-17T04:20:34.206Z,95.10
2023-02-17T04:23:01.112Z,95.20
2023-02-17T04:25:27.981Z,94.62
2023-02-17T04:27:54.841Z,94.35
2023-02-17T04:30:21.914Z,94.18
2023-02-17T04:32:48.768Z,94.01
2023-02-17T04:35:15.740Z,94.13
2023-02-17T04:37:42.617Z,93.74
2023-02-17T04:40:10.719Z,93.67
2023-02-17T04:42:37.883Z,93.83
2023-02-17T04:45:05.727Z,93.86
2023-02-17T04:47:32.547Z,93.45
2023-02-17T04:49:59.434Z,93.31
2023-02-17T04:52:26.508Z,93.32
2023-02-17T04:54:53.344Z,93.33
2023-02-17T04:57:20.221Z,93.35
2023-02-17T04:59:47.082Z,93.24
2023-02-17T05:02:13.903Z,92.42
2023-02-17T05:04:40.869Z,92.42
2023-02-17T05:07:07.731Z,92.32
2023-02-17T05:09:34.697Z,92.03
2023-02-17T05:12:03.254Z,91.95
2023-02-17T05:14:30.109Z,91.72
2023-02-17T05:16:56.972Z,91.47
2023-02-17T05:19:23.836Z,90.90
2023-02-17T05:21:51.736Z,90.94
2023-02-17T05:24:18.577Z,90.69
2023-02-17T05:26:45.589Z,90.28
2023-02-17T05:29:12.420Z,90.50
2023-02-17T05:31:39.560Z,90.21
2023-02-17T05:34:06.425Z,89.75
2023-02-17T05:36:33.294Z,89.42
2023-02-17T05:39:00.252Z,88.42
2023-02-17T05:41:27.173Z,87.89
2023-02-17T05:43:54.004Z,88.28
2023-02-17T05:46:20.988Z,87.44
2023-02-17T05:48:48.852Z,86.95
2023-02-17T05:51:17.541Z,87.20
2023-02-17T05:53:44.694Z,87.08
2023-02-17T05:56:11.684Z,87.21
2023-02-17T05:58:38.591Z,87.21
2023-02-17T06:01:08.537Z,87.28
2023-02-17T06:03:35.433Z,87.02
2023-02-17T06:06:02.312Z,86.45
2023-02-17T06:08:29.284Z,86.11
2023-02-17T06:10:56.297Z,86.07
2023-02-17T06:13:23.252Z,86.19
2023-02-17T06:15:50.152Z,86.42
2023-02-17T06:18:17.446Z,86.10
2023-02-17T06:20:44.320Z,85.83
2023-02-17T06:23:11.929Z,86.12
2023-02-17T06:25:38.915Z,86.12
2023-02-17T06:28:05.791Z,85.78
2023-02-17T06:30:33.346Z,86.11
2023-02-17T06:33:00.235Z,86.35
2023-02-17T06:35:27.334Z,86.00
2023-02-17T06:37:54.244Z,86.09
2023-02-17T06:40:21.142Z,86.33
2023-02-17T06:42:48.027Z,86.38
2023-02-17T06:45:14.951Z,86.01
2023-02-17T06:47:41.924Z,86.66
2023-02-17T06:50:09.257Z,86.64
2023-02-17T06:52:36.115Z,86.84
2023-02-17T06:55:03.477Z,86.96
2023-02-17T06:57:30.358Z,87.40
2023-02-17T06:59:57.387Z,87.69
2023-02-17T07:02:24.349Z,88.01
2023-02-17T07:04:51.324Z,88.03
2023-02-17T07:07:18.180Z,87.57
2023-02-17T07:09:45.032Z,87.27
2023-02-17T07:12:12.080Z,86.72
2023-02-17T07:14:38.937Z,87.04
2023-02-17T07:17:05.820Z,87.32
2023-02-17T07:19:32.887Z,87.16
2023-02-17T07:21:59.799Z,87.19
2023-02-17T07:24:26.876Z,87.46
2023-02-17T07:26:56.449Z,87.20
2023-02-17T07:29:23.428Z,87.06
2023-02-17T07:31:50.383Z,87.21
2023-02-17T07:34:17.290Z,87.48
2023-02-17T07:36:44.207Z,87.29
2023-02-17T07:39:11.159Z,87.30
2023-02-17T07:41:38.084Z,87.25
2023-02-17T07:44:10.303Z,86.83
2023-02-17T07:46:37.484Z,87.06
2023-02-17T07:49:04.563Z,86.46
2023-02-17T07:51:31.432Z,86.60
2023-02-17T07:53:58.425Z,86.29
2023-02-17T07:56:26.047Z,86.08
2023-02-17T07:58:53.122Z,86.88
2023-02-17T08:01:21.712Z,86.34
2023-02-17T08:03:48.993Z,86.17
2023-02-17T08:06:18.924Z,86.39
2023-02-17T08:08:49.325Z,86.88
2023-02-17T08:11:20.085Z,87.13
2023-02-17T08:13:47.049Z,87.29
2023-02-17T08:16:14.008Z,86.66
2023-02-17T08:18:41.057Z,86.96
2023-02-17T08:21:08.331Z,87.14
2023-02-17T08:23:35.585Z,87.53
2023-02-17T08:26:02.500Z,87.15
2023-02-17T08:28:29.414Z,87.09
2023-02-17T08:30:56.683Z,86.53
2023-02-17T08:33:23.972Z,86.73
2023-02-17T08:35:51.209Z,86.73
2023-02-17T08:38:18.185Z,86.50
2023-02-17T08:40:45.165Z,87.26
2023-02-17T08:43:12.218Z,87.04
2023-02-17T08:45:39.243Z,86.82
2023-02-17T08:48:06.419Z,85.96
2023-02-17T08:50:34.022Z,85.78
2023-02-17T08:53:00.997Z,85.48
2023-02-17T08:55:30.438Z,85.58
2023-02-17T08:58:00.640Z,85.76
2023-02-17T09:00:27.823Z,86.28
2023-02-17T09:02:54.697Z,84.78
2023-02-17T09:05:21.881Z,86.41
2023-02-17T09:07:48.875Z,86.04
2023-02-17T09:10:16.218Z,84.37
2023-02-17T09:12:43.166Z,83.81
2023-02-17T09:15:10.197Z,83.91
2023-02-17T09:17:40.978Z,83.29
2023-02-17T09:20:19.518Z,84.15
2023-02-17T09:22:51.562Z,84.08
2023-02-17T09:25:19.390Z,83.93
2023-02-17T09:27:46.335Z,83.85
2023-02-17T09:30:13.799Z,84.10
2023-02-17T09:32:42.469Z,84.50
2023-02-17T09:35:12.655Z,84.82
2023-02-17T09:37:39.763Z,84.83
2023-02-17T09:40:07.271Z,84.89
2023-02-17T09:42:36.541Z,85.05
2023-02-17T09:45:06.485Z,84.60
2023-02-17T09:47:37.635Z,84.77
2023-02-17T09:50:07.325Z,85.11
2023-02-17T09:52:36.288Z,84.99
2023-02-17T09:55:04.486Z,84.61
2023-02-17T09:57:34.952Z,84.78
2023-02-17T10:00:08.527Z,85.11
2023-02-17T10:02:40.417Z,85.44
2023-02-17T10:05:09.536Z,85.24
2023-02-17T10:07:40.239Z,85.08
2023-02-17T10:10:11.497Z,85.08
2023-02-17T10:12:41.638Z,85.00
2023-02-17T10:15:13.425Z,84.58
2023-02-17T10:17:44.482Z,84.96
2023-02-17T10:20:13.895Z,84.69
2023-02-17T10:22:43.162Z,84.12
2023-02-17T10:25:13.392Z,84.24
2023-02-17T10:27:43.119Z,84.53
2023-02-17T10:30:13.175Z,84.47
2023-02-17T10:32:43.320Z,84.40
2023-02-17T10:35:13.501Z,84.25
2023-02-17T10:37:40.953Z,84.43
2023-02-17T10:40:12.431Z,84.54
2023-02-17T10:42:39.770Z,84.33
2023-02-17T10:45:11.442Z,83.88
2023-02-17T10:47:39.410Z,84.01
2023-02-17T10:50:08.813Z,84.32
2023-02-17T10:52:38.767Z,84.08
2023-02-17T10:55:22.429Z,84.15
2023-02-17T10:57:54.154Z,84.11
2023-02-17T11:00:21.352Z,83.63
2023-02-17T11:02:49.480Z,83.88
2023-02-17T11:05:19.459Z,83.64
2023-02-17T11:07:46.439Z,83.61
2023-02-17T11:10:16.521Z,83.39
2023-02-17T11:12:44.047Z,83.95
2023-02-17T11:15:13.980Z,83.17
2023-02-17T11:17:41.411Z,83.36
2023-02-17T11:20:27.734Z,83.51
2023-02-17T11:22:57.849Z,83.68
2023-02-17T11:25:27.437Z,83.46
2023-02-17T11:27:55.444Z,82.77
2023-02-17T11:30:23.064Z,82.61
2023-02-17T11:32:50.570Z,82.78
2023-02-17T11:35:20.879Z,83.29
2023-02-17T11:37:47.817Z,83.61
2023-02-17T11:40:26.084Z,83.33
2023-02-17T11:42:56.568Z,83.05
2023-02-17T11:45:24.215Z,83.47
2023-02-17T11:47:51.728Z,83.41
2023-02-17T11:50:35.391Z,82.61
2023-02-17T11:53:10.325Z,83.10
2023-02-17T11:55:40.261Z,83.52
2023-02-17T11:58:10.228Z,82.94
2023-02-17T12:00:37.760Z,83.19
2023-02-17T12:03:07.879Z,83.25
2023-02-17T12:05:36.343Z,83.05
2023-02-17T12:08:04.813Z,83.02
2023-02-17T12:10:34.810Z,83.02
2023-02-17T12:13:04.984Z,83.28
2023-02-17T12:15:40.458Z,83.39
2023-02-17T12:18:07.924Z,84.04
2023-02-17T12:20:35.338Z,83.56
2023-02-17T12:23:03.618Z,83.64
2023-02-17T12:25:33.785Z,83.91
2023-02-17T12:28:03.887Z,83.57
2023-02-17T12:30:34.172Z,83.56
2023-02-17T12:33:01.667Z,83.11
2023-02-17T12:35:31.622Z,83.20
2023-02-17T12:38:02.292Z,83.19
2023-02-17T12:40:32.650Z,83.01
2023-02-17T12:43:02.069Z,82.83
2023-02-17T12:45:32.088Z,82.51
2023-02-17T12:48:03.207Z,81.99
2023-02-17T12:50:33.305Z,81.94
2023-02-17T12:53:02.753Z,81.92
2023-02-17T12:55:37.664Z,81.69
2023-02-17T12:58:08.364Z,81.37
2023-02-17T13:00:39.361Z,81.37
2023-02-17T13:03:06.906Z,81.03
2023-02-17T13:05:34.244Z,81.46
2023-02-17T13:08:05.080Z,81.42
2023-02-17T13:10:34.137Z,80.02
2023-02-17T13:13:03.570Z,80.27
2023-02-17T13:15:31.018Z,79.64
2023-02-17T13:18:01.740Z,79.63
2023-02-17T13:20:38.691Z,79.82
2023-02-17T13:23:07.326Z,79.25
2023-02-17T13:25:37.495Z,79.14
2023-02-17T13:28:17.417Z,79.23
2023-02-17T13:30:45.694Z,78.73
2023-02-17T13:33:15.739Z,79.14
2023-02-17T13:35:42.725Z,79.48
2023-02-17T13:38:10.460Z,79.36
2023-02-17T13:40:38.934Z,79.27
2023-02-17T13:43:08.928Z,79.22
2023-02-17T13:45:39.048Z,79.17
2023-02-17T13:48:09.079Z,78.99
2023-02-17T13:50:38.340Z,79.07
2023-02-17T13:53:08.526Z,79.36
2023-02-17T13:55:35.584Z,78.66
2023-02-17T13:58:03.045Z,78.33
2023-02-17T14:00:31.569Z,78.44
2023-02-17T14:02:59.806Z,78.40
2023-02-17T14:05:29.353Z,78.29
2023-02-17T14:07:59.535Z,77.90
2023-02-17T14:10:27.436Z,77.36
2023-02-17T14:12:55.402Z,77.32
2023-02-17T14:15:24.247Z,77.30
2023-02-17T14:17:51.223Z,77.43
2023-02-17T14:20:21.221Z,77.20
2023-02-17T14:22:59.162Z,76.59
2023-02-17T14:25:31.430Z,76.47
2023-02-17T14:27:58.427Z,77.07
2023-02-17T14:30:29.986Z,76.76
2023-02-17T14:33:00.212Z,76.57
2023-02-17T14:35:27.160Z,76.89
2023-02-17T14:37:54.325Z,76.60
2023-02-17T14:40:24.561Z,77.34
2023-02-17T14:42:51.529Z,76.96
2023-02-17T14:45:19.219Z,77.26
2023-02-17T14:47:46.688Z,77.41
2023-02-17T14:50:14.153Z,77.37
2023-02-17T14:52:42.987Z,77.39
2023-02-17T14:55:15.547Z,77.40
2023-02-17T14:57:42.919Z,77.07
2023-02-17T15:00:12.147Z,77.34
2023-02-17T15:02:39.168Z,77.60
2023-02-17T15:05:06.469Z,76.96
2023-02-17T15:07:33.385Z,77.11
2023-02-17T15:10:00.490Z,77.51
2023-02-17T15:12:28.361Z,77.12
2023-02-17T15:14:56.001Z,76.92
2023-02-17T15:17:22.958Z,77.32
2023-02-17T15:19:50.020Z,76.66
2023-02-17T15:22:17.006Z,76.58
2023-02-17T15:24:44.003Z,76.64
2023-02-17T15:27:14.348Z,76.79
2023-02-17T15:29:41.275Z,77.43
2023-02-17T15:32:16.011Z,76.64
2023-02-17T15:34:43.338Z,77.06
2023-02-17T15:37:10.777Z,77.00
2023-02-17T15:39:37.802Z,77.35
2023-02-17T15:42:07.423Z,77.57
2023-02-17T15:44:37.654Z,77.85
2023-02-17T15:47:04.816Z,77.99
2023-02-17T15:49:31.881Z,78.01
2023-02-17T15:51:58.809Z,77.74
2023-02-17T15:54:25.782Z,78.41
2023-02-17T15:56:53.293Z,78.90
2023-02-17T15:59:22.749Z,78.63
2023-02-17T16:01:51.045Z,78.79
2023-02-17T16:04:18.649Z,78.82
2023-02-17T16:06:45.593Z,79.13
2023-02-17T16:09:12.654Z,79.24
2023-02-17T16:11:42.727Z,78.80
2023-02-17T16:14:14.776Z,78.57
2023-02-17T16:16:41.807Z,78.66
2023-02-17T16:19:12.094Z,78.57
2023-02-17T16:21:39.045Z,79.29
2023-02-17T16:24:06.290Z,79.37
2023-02-17T16:26:35.448Z,79.39
2023-02-17T16:29:03.591Z,80.14
2023-02-17T16:31:32.736Z,79.85
2023-02-17T16:34:00.674Z,79.91
2023-02-17T16:36:30.513Z,80.38
2023-02-17T16:38:57.450Z,80.14
2023-02-17T16:41:24.443Z,80.78
2023-02-17T16:43:51.342Z,81.19
2023-02-17T16:46:20.890Z,81.00
2023-02-17T16:48:48.038Z,81.98
2023-02-17T16:51:15.088Z,82.00
2023-02-17T16:53:42.059Z,82.44
2023-02-17T16:56:12.087Z,82.42
2023-02-17T16:58:40.746Z,82.34
2023-02-17T17:01:12.818Z,82.70
2023-02-17T17:03:41.449Z,82.52
2023-02-17T17:06:11.569Z,82.77
2023-02-17T17:08:38.526Z,83.54
2023-02-17T17:11:05.650Z,84.26
2023-02-17T17:13:37.486Z,84.26
2023-02-17T17:16:04.963Z,84.16
2023-02-17T17:18:32.150Z,84.26
2023-02-17T17:20:59.193Z,84.46
2023-02-17T17:23:26.288Z,84.64
2023-02-17T17:25:53.446Z,84.31
2023-02-17T17:28:20.700Z,84.87
2023-02-17T17:30:47.999Z,85.08
2023-02-17T17:33:15.168Z,84.98
2023-02-17T17:35:42.421Z,85.42
2023-02-17T17:38:13.459Z,85.83
2023-02-17T17:40:43.621Z,86.14
2023-02-17T17:43:10.560Z,86.38
2023-02-17T17:45:37.731Z,86.08
2023-02-17T17:48:05.435Z,85.75
2023-02-17T17:50:32.510Z,86.42
2023-02-17T17:52:59.449Z,86.73
2023-02-17T17:55:26.521Z,86.22
2023-02-17T17:57:53.946Z,86.15
2023-02-17T18:00:21.310Z,86.34
2023-02-17T18:02:48.292Z,86.34
2023-02-17T18:05:15.350Z,86.53
2023-02-17T18:07:43.379Z,86.72
2023-02-17T18:10:12.122Z,86.94
2023-02-17T18:12:40.845Z,86.82
2023-02-17T18:15:08.176Z,87.11
2023-02-17T18:17:36.406Z,87.47
2023-02-17T18:20:03.987Z,87.88
2023-02-17T18:22:30.926Z,87.44
2023-02-17T18:25:00.936Z,87.62
2023-02-17T18:27:28.227Z,87.96
2023-02-17T18:29:56.504Z,87.83
2023-02-17T18:32:24.788Z,88.20
2023-02-17T18:34:51.850Z,88.09
2023-02-17T18:37:18.876Z,88.24
2023-02-17T18:39:45.928Z,88.14
2023-02-17T18:42:12.908Z,88.19
2023-02-17T18:44:40.025Z,88.68
2023-02-17T18:47:06.983Z,88.91
2023-02-17T18:49:33.987Z,88.98
2023-02-17T18:52:01.096Z,89.00
2023-02-17T18:54:28.038Z,89.45
2023-02-17T18:56:55.040Z,90.21
2023-02-17T18:59:22.157Z,89.79
2023-02-17T19:01:49.230Z,90.26
2023-02-17T19:04:16.398Z,90.16
2023-02-17T19:06:43.543Z,89.97
2023-02-17T19:09:11.111Z,90.15
2023-02-17T19:11:38.275Z,90.59
2023-02-17T19:14:05.333Z,90.82
2023-02-17T19:16:32.622Z,90.68
2023-02-17T19:19:01.132Z,90.41
2023-02-17T19:21:28.303Z,90.14
2023-02-17T19:23:55.346Z,90.53
2023-02-17T19:26:23.026Z,90.52
2023-02-17T19:28:50.052Z,90.45
2023-02-17T19:31:21.852Z,90.64
2023-02-17T19:33:49.103Z,90.32
2023-02-17T19:36:17.729Z,90.69
2023-02-17T19:38:45.191Z,90.70
2023-02-17T19:41:13.261Z,91.19
2023-02-17T19:43:40.872Z,91.24
2023-02-17T19:46:12.813Z,91.31
2023-02-17T19:48:39.962Z,91.38
2023-02-17T19:51:08.037Z,91.08
2023-02-17T19:53:35.262Z,91.53
2023-02-17T19:56:05.725Z,91.63
2023-02-17T19:58:32.974Z,91.72
2023-02-17T20:01:03.169Z,92.33
2023-02-17T20:03:30.117Z,92.83
2023-02-17T20:05:57.277Z,93.29
2023-02-17T20:08:24.198Z,93.67
2023-02-17T20:10:51.338Z,93.58
2023-02-17T20:13:18.381Z,93.51
2023-02-17T20:15:45.471Z,93.97
2023-02-17T20:18:12.419Z,93.62
2023-02-17T20:20:39.386Z,94.04
2023-02-17T20:23:07.654Z,94.35
2023-02-17T20:25:34.607Z,94.80
2023-02-17T20:28:01.769Z,94.85
2023-02-17T20:30:28.951Z,95.05
2023-02-17T20:32:55.982Z,95.72
2023-02-17T20:35:23.177Z,95.90
2023-02-17T20:37:50.227Z,96.25
2023-02-17T20:40:17.288Z,96.75
2023-02-17T20:42:44.462Z,96.67
2023-02-17T20:45:11.384Z,96.57
2023-02-17T20:47:38.372Z,97.00
2023-02-17T20:50:09.591Z,97.12
2023-02-17T20:52:36.772Z,96.97
2023-02-17T20:55:03.823Z,97.18
2023-02-17T20:57:31.567Z,96.92
2023-02-17T20:59:58.838Z,96.79
2023-02-17T21:02:25.918Z,97.46
2023-02-17T21:04:52.955Z,97.45
2023-02-17T21:07:20.126Z,97.16
2023-02-17T21:09:47.896Z,97.51
2023-02-17T21:12:15.083Z,97.70
2023-02-17T21:14:42.046Z,97.24
2023-02-17T21:17:09.563Z,97.21
2023-02-17T21:19:36.668Z,96.86
2023-02-17T21:22:04.179Z,96.54
2023-02-17T21:24:31.276Z,96.64
2023-02-17T21:26:58.607Z,96.59
2023-02-17T21:29:25.694Z,96.58
2023-02-17T21:31:53.548Z,96.96
2023-02-17T21:34:20.928Z,96.70
2023-02-17T21:36:48.027Z,96.34
2023-02-17T21:39:15.220Z,96.17
2023-02-17T21:41:42.384Z,96.37
2023-02-17T21:44:15.187Z,96.34
2023-02-17T21:46:43.678Z,96.77
2023-02-17T21:49:11.363Z,97.11
2023-02-17T21:51:39.485Z,96.37
2023-02-17T21:54:07.499Z,96.66
2023-02-17T21:56:34.544Z,96.48
2023-02-17T21:59:01.635Z,96.03
2023-02-17T22:01:28.832Z,95.76
2023-02-17T22:03:56.165Z,95.76
2023-02-17T22:06:25.093Z,95.76
2023-02-17T22:08:52.289Z,95.90
2023-02-17T22:11:21.601Z,96.04
2023-02-17T22:13:49.116Z,95.99
2023-02-17T22:16:16.404Z,96.00
2023-02-17T22:18:43.615Z,96.23
2023-02-17T22:21:11.420Z,96.07
2023-02-17T22:23:38.645Z,96.78
2023-02-17T22:26:07.376Z,96.87
2023-02-17T22:28:34.761Z,97.04
2023-02-17T22:31:02.086Z,97.40
2023-02-17T22:33:29.339Z,97.73
2023-02-17T22:35:59.828Z,98.01
2023-02-17T22:38:26.936Z,98.05
2023-02-17T22:40:54.028Z,98.07
2023-02-17T22:43:21.129Z,97.86
2023-02-17T22:45:48.341Z,97.87
2023-02-17T22:48:15.347Z,97.49
2023-02-17T22:50:42.376Z,97.52
2023-02-17T22:53:09.363Z,98.42
2023-02-17T22:55:36.327Z,98.70
2023-02-17T22:58:03.357Z,98.67
2023-02-17T23:00:30.396Z,98.41
2023-02-17T23:02:57.526Z,98.44
2023-02-17T23:05:24.816Z,97.96
2023-02-17T23:07:53.112Z,97.37
2023-02-17T23:10:20.866Z,97.19
2023-02-17T23:12:47.907Z,97.35
2023-02-17T23:15:15.009Z,96.90
2023-02-17T23:17:45.010Z,97.26
2023-02-17T23:20:12.107Z,96.54
2023-02-17T23:22:39.199Z,96.25
2023-02-17T23:25:06.372Z,96.69
2023-02-17T23:27:33.410Z,97.34
2023-02-17T23:30:01.026Z,97.64
2023-02-17T23:32:28.021Z,97.09
2023-02-17T23:34:55.159Z,96.21
2023-02-17T23:37:22.212Z,96.05
2023-02-17T23:39:49.237Z,96.37
2023-02-17T23:42:16.361Z,96.09
2023-02-17T23:44:43.394Z,96.24
2023-02-17T23:47:10.392Z,95.82
2023-02-17T23:49:37.364Z,95.75
2023-02-17T23:52:04.628Z,95.82
2023-02-17T23:54:31.626Z,95.74
2023-02-17T23:56:58.688Z,95.40
2023-02-17T23:59:25.880Z,94.64
